Time;durP1;ratioP1;P1;durP2;ratioP2;P2;SDS_P1;SDS_P2;PMS_P1;PMS_P2;Temp;Humidity;BMP_temperature;BMP_pressure;BME280_temperature;BME280_humidity;BME280_pressure;Samples;Min_cycle;Max_cycle;Signal;HPM_P1;HPM_P2
2021/08/28 00:00:17;;;;;;;11.35;6.85;;;;;;;15.63;70.42;102162.34;5032095;28;20045;-85
2021/08/28 00:02:44;;;;;;;16.42;7.72;;;;;;;15.64;70.56;102158.41;5048770;28;20712;-84
2021/08/28 00:05:11;;;;;;;14.80;7.70;;;;;;;15.59;70.71;102162.22;5046964;28;20087;-85
2021/08/28 00:07:38;;;;;;;14.07;6.38;;;;;;;15.55;70.76;102161.28;5048576;28;20531;-85
2021/08/28 00:10:06;;;;;;;12.77;6.72;;;;;;;15.53;71.03;102162.78;5065857;28;20047;-85
2021/08/28 00:12:33;;;;;;;9.95;6.10;;;;;;;15.48;70.91;102165.78;5049290;28;20040;-85
2021/08/28 00:15:00;;;;;;;14.38;7.05;;;;;;;15.45;71.30;102160.84;5046312;28;20109;-85
2021/08/28 00:17:33;;;;;;;15.30;7.40;;;;;;;15.44;70.98;102160.03;5052810;28;20375;-85
2021/08/28 00:20:05;;;;;;;13.35;6.78;;;;;;;15.40;71.46;102161.09;5035970;28;20095;-85
2021/08/28 00:22:32;;;;;;;11.45;5.90;;;;;;;15.44;71.23;102167.59;5049520;28;20444;-85
2021/08/28 00:24:58;;;;;;;19.48;7.65;;;;;;;15.43;71.32;102175.19;5045915;28;20060;-84
2021/08/28 00:27:25;;;;;;;13.50;7.57;;;;;;;15.42;71.56;102178.28;5051498;28;20036;-85
2021/08/28 00:29:53;;;;;;;20.15;7.30;;;;;;;15.40;71.34;102177.81;5051083;28;20056;-84
2021/08/28 00:32:20;;;;;;;14.68;8.02;;;;;;;15.41;71.38;102179.47;5046392;28;20040;-85
2021/08/28 00:34:46;;;;;;;12.02;7.05;;;;;;;15.38;71.70;102178.16;5050965;28;20045;-85
2021/08/28 00:37:13;;;;;;;12.48;7.45;;;;;;;15.34;71.76;102180.00;5048982;28;20051;-85
2021/08/28 00:39:40;;;;;;;12.55;6.88;;;;;;;15.35;71.61;102183.63;5069517;28;20032;-85
2021/08/28 00:42:06;;;;;;;12.20;7.72;;;;;;;15.33;71.78;102185.94;5044802;28;20037;-85
2021/08/28 00:44:38;;;;;;;12.52;7.43;;;;;;;15.31;71.98;102183.47;5032461;28;20041;-85
2021/08/28 00:47:04;;;;;;;12.88;6.07;;;;;;;15.30;71.88;102186.63;5044666;28;20052;-84
2021/08/28 00:49:31;;;;;;;15.13;7.32;;;;;;;15.30;71.93;102176.28;5048192;28;20121;-85
2021/08/28 00:52:02;;;;;;;13.90;7.70;;;;;;;15.37;71.85;102184.09;5040604;28;20037;-85
2021/08/28 00:54:30;;;;;;;18.00;7.90;;;;;;;15.45;71.97;102174.81;5047211;28;20041;-85
2021/08/28 00:56:56;;;;;;;16.05;6.90;;;;;;;15.48;71.76;102188.13;5042485;28;20072;-85
2021/08/28 00:59:23;;;;;;;14.98;7.60;;;;;;;15.51;71.55;102179.06;5052953;28;20036;-84
2021/08/28 01:01:50;;;;;;;14.25;7.60;;;;;;;15.53;71.67;102185.94;5045284;28;20051;-84
2021/08/28 01:04:20;;;;;;;15.52;7.50;;;;;;;15.59;71.65;102181.78;5034900;28;20046;-83
2021/08/28 01:07:01;;;;;;;15.30;7.10;;;;;;;15.56;71.94;102188.03;5031110;28;20048;-85
2021/08/28 01:09:35;;;;;;;19.20;7.80;;;;;;;15.56;71.74;102190.84;5047165;28;20103;-85
2021/08/28 01:12:15;;;;;;;18.42;8.57;;;;;;;15.55;71.69;102188.38;5038758;28;20299;-84
2021/08/28 01:14:46;;;;;;;16.13;8.90;;;;;;;15.53;71.79;102196.28;5060881;28;20042;-85
2021/08/28 01:17:14;;;;;;;17.27;7.07;;;;;;;15.50;71.85;102202.53;5044769;28;20048;-85
2021/08/28 01:20:05;;;;;;;18.73;8.00;;;;;;;15.39;72.09;102190.97;5043399;28;20037;-85
2021/08/28 01:22:39;;;;;;;22.13;10.00;;;;;;;15.38;71.99;102189.31;5034987;28;20033;-85
2021/08/28 01:25:08;;;;;;;15.32;8.25;;;;;;;15.33;72.16;102197.09;5034216;28;20037;-85
2021/08/28 01:27:40;;;;;;;14.23;7.82;;;;;;;15.25;72.51;102196.00;5039565;28;20128;-85
2021/08/28 01:30:08;;;;;;;15.70;7.35;;;;;;;15.18;72.68;102202.16;5050220;28;20047;-85
2021/08/28 01:32:35;;;;;;;15.55;6.95;;;;;;;15.21;72.75;102201.47;5046729;28;20472;-84
2021/08/28 01:35:03;;;;;;;16.67;7.88;;;;;;;15.22;72.77;102202.28;5054553;28;20057;-84
2021/08/28 01:37:30;;;;;;;13.02;7.45;;;;;;;15.22;72.67;102203.09;5037837;28;20132;-84
2021/08/28 01:39:59;;;;;;;13.02;7.78;;;;;;;15.21;72.62;102195.88;5053074;28;20043;-85
2021/08/28 01:42:30;;;;;;;15.00;8.70;;;;;;;15.21;72.67;102195.88;5049070;28;20041;-83
2021/08/28 01:44:58;;;;;;;16.88;7.28;;;;;;;15.21;72.76;102195.88;5041857;28;20029;-84
2021/08/28 01:47:28;;;;;;;14.57;7.78;;;;;;;15.14;72.74;102195.59;5042632;28;20034;-85
2021/08/28 01:49:55;;;;;;;16.35;8.55;;;;;;;15.14;72.98;102197.59;5050769;28;20040;-84
2021/08/28 01:52:22;;;;;;;13.90;7.25;;;;;;;15.11;73.08;102201.88;5049957;28;20049;-85
2021/08/28 01:54:49;;;;;;;14.85;7.38;;;;;;;15.06;73.06;102193.69;5049715;28;20508;-85
2021/08/28 01:57:16;;;;;;;16.02;7.15;;;;;;;15.04;73.23;102201.59;5053350;28;20032;-84
2021/08/28 01:59:43;;;;;;;15.88;7.05;;;;;;;15.04;73.19;102190.44;5050047;28;20056;-84
2021/08/28 02:02:10;;;;;;;12.90;6.53;;;;;;;15.00;73.23;102195.09;5044211;28;20064;-84
2021/08/28 02:04:39;;;;;;;14.15;7.10;;;;;;;14.95;73.25;102188.88;5052170;28;20033;-83
2021/08/28 02:07:11;;;;;;;20.40;11.77;;;;;;;14.93;73.69;102196.78;5048108;28;20111;-84
2021/08/28 02:09:53;;;;;;;15.40;9.63;;;;;;;14.91;73.52;102199.06;5069473;28;20135;-84
2021/08/28 02:12:34;;;;;;;21.00;9.48;;;;;;;14.86;73.67;102199.28;5036664;28;20065;-84
2021/08/28 02:15:09;;;;;;;22.48;10.75;;;;;;;14.82;73.77;102198.34;5049621;28;20048;-84
2021/08/28 02:17:42;;;;;;;17.85;10.35;;;;;;;14.74;74.02;102194.44;5042779;28;20037;-84
2021/08/28 02:20:10;;;;;;;19.58;10.25;;;;;;;14.75;73.88;102198.84;5035012;28;20050;-85
2021/08/28 02:22:42;;;;;;;18.25;9.10;;;;;;;14.73;74.13;102198.38;5051816;28;20041;-84
2021/08/28 02:25:48;;;;;;;15.65;9.43;;;;;;;14.64;74.56;102198.44;5047084;28;20033;-84
2021/08/28 02:28:26;;;;;;;18.02;8.80;;;;;;;14.61;74.54;102192.72;5062058;28;20365;-84
2021/08/28 02:30:54;;;;;;;13.07;7.47;;;;;;;14.65;74.40;102196.47;5049628;28;20045;-85
2021/08/28 02:33:24;;;;;;;16.50;8.83;;;;;;;14.66;74.20;102188.94;5059519;28;20484;-84
2021/08/28 02:35:53;;;;;;;15.43;8.38;;;;;;;14.65;74.14;102188.09;5049878;28;20777;-84
2021/08/28 02:38:20;;;;;;;14.80;8.35;;;;;;;14.66;74.04;102191.72;5049513;28;20033;-84
2021/08/28 02:40:49;;;;;;;15.05;8.15;;;;;;;14.66;73.89;102184.19;5036669;28;20037;-85
2021/08/28 02:43:16;;;;;;;15.18;7.93;;;;;;;14.66;74.00;102188.94;5045339;28;20046;-84
2021/08/28 02:45:44;;;;;;;12.43;6.68;;;;;;;14.63;74.25;102188.47;5042598;28;20073;-84
2021/08/28 02:48:16;;;;;;;11.52;6.63;;;;;;;14.60;74.23;102183.56;5047220;28;20064;-84
2021/08/28 02:50:44;;;;;;;;;;;;;;;14.53;74.64;102201.97;5058928;28;20033;-84
2021/08/28 02:53:14;;;;;;;15.15;6.28;;;;;;;14.50;74.45;102195.09;5070319;28;19939;-84
2021/08/28 02:55:45;;;;;;;12.02;6.65;;;;;;;14.48;74.40;102197.38;5055025;28;20036;-84
2021/08/28 02:58:12;;;;;;;12.25;6.95;;;;;;;14.51;74.48;102195.88;5053619;28;20063;-84
2021/08/28 03:00:42;;;;;;;10.15;6.35;;;;;;;14.53;74.50;102194.41;5050780;28;20483;-84
2021/08/28 03:03:12;;;;;;;14.25;7.47;;;;;;;14.53;74.84;102193.59;5076140;28;20135;-84
2021/08/28 03:05:41;;;;;;;11.15;7.07;;;;;;;14.53;74.56;102196.38;5057146;28;20087;-84
2021/08/28 03:08:08;;;;;;;15.15;6.97;;;;;;;14.53;74.55;102199.19;5054956;28;20051;-84
2021/08/28 03:10:36;;;;;;;12.43;6.35;;;;;;;14.54;74.89;102198.81;5045617;28;20167;-84
2021/08/28 03:13:02;;;;;;;14.38;6.90;;;;;;;14.54;74.59;102198.00;5065700;28;20037;-84
2021/08/28 03:15:29;;;;;;;15.55;7.35;;;;;;;14.52;75.06;102200.31;5036251;28;20044;-84
2021/08/28 03:18:00;;;;;;;9.43;5.45;;;;;;;14.54;74.97;102204.41;5047207;28;20041;-84
2021/08/28 03:20:27;;;;;;;11.77;6.50;;;;;;;14.57;75.08;102202.91;5035764;28;20055;-85
2021/08/28 03:22:55;;;;;;;10.85;5.70;;;;;;;14.57;75.35;102203.72;5052781;28;20041;-84
2021/08/28 03:25:21;;;;;;;11.05;5.53;;;;;;;14.58;75.35;102199.81;5064124;28;20476;-84
2021/08/28 03:27:49;;;;;;;14.88;6.38;;;;;;;14.60;75.60;102202.25;5041213;28;20031;-84
2021/08/28 03:30:18;;;;;;;11.15;5.97;;;;;;;14.62;75.59;102203.53;5046531;28;20037;-84
2021/08/28 03:32:47;;;;;;;11.98;5.82;;;;;;;14.62;75.71;102199.94;5033256;28;20125;-84
2021/08/28 03:35:14;;;;;;;11.35;6.95;;;;;;;14.63;75.66;102207.16;5075104;28;20071;-85
2021/08/28 03:37:43;;;;;;;13.20;5.82;;;;;;;14.60;75.82;102207.81;5070496;28;20036;-84
2021/08/28 03:40:11;;;;;;;13.30;6.60;;;;;;;14.57;75.94;102200.13;5066679;28;20037;-84
2021/08/28 03:42:39;;;;;;;13.90;6.63;;;;;;;14.55;75.86;102199.66;5055253;28;20049;-84
2021/08/28 03:45:08;;;;;;;10.98;6.07;;;;;;;14.51;76.07;102195.88;5052140;28;20045;-83
2021/08/28 03:47:37;;;;;;;10.35;6.60;;;;;;;14.52;75.97;102189.16;5052118;28;20488;-84
2021/08/28 03:50:05;;;;;;;12.02;6.93;;;;;;;14.53;76.07;102194.41;5031423;28;20045;-84
2021/08/28 03:52:32;;;;;;;12.65;6.40;;;;;;;14.53;75.98;102201.97;5051165;28;20537;-84
2021/08/28 03:54:59;;;;;;;14.43;6.25;;;;;;;14.57;76.14;102208.47;5052591;28;20215;-84
2021/08/28 03:57:26;;;;;;;11.13;6.20;;;;;;;14.59;76.14;102203.38;5052128;28;20045;-84
2021/08/28 03:59:52;;;;;;;11.38;5.85;;;;;;;14.60;76.29;102202.25;5051924;28;20060;-84
2021/08/28 04:02:19;;;;;;;10.82;5.60;;;;;;;14.60;76.21;102199.44;5052089;28;20534;-85
2021/08/28 04:04:46;;;;;;;11.60;6.18;;;;;;;14.65;76.51;102204.81;5034057;28;20121;-84
2021/08/28 04:07:13;;;;;;;12.50;6.10;;;;;;;14.72;76.43;102210.69;5057243;28;20128;-84
2021/08/28 04:09:40;;;;;;;9.48;5.30;;;;;;;14.78;76.23;102202.94;5052090;28;20051;-84
2021/08/28 04:12:06;;;;;;;10.13;5.78;;;;;;;14.79;76.77;102202.63;5064279;28;20477;-84
2021/08/28 04:14:33;;;;;;;10.73;5.40;;;;;;;14.87;76.38;102206.50;5071103;28;20032;-84
2021/08/28 04:17:00;;;;;;;10.45;5.53;;;;;;;14.88;76.37;102202.56;5052618;28;20036;-84
2021/08/28 04:19:27;;;;;;;17.83;7.20;;;;;;;14.93;76.52;102202.34;5051875;28;20123;-83
2021/08/28 04:21:53;;;;;;;11.63;6.20;;;;;;;14.99;76.41;102199.00;5044381;28;20048;-84
2021/08/28 04:24:20;;;;;;;9.90;5.20;;;;;;;15.02;76.44;102203.91;5051971;28;20033;-84
2021/08/28 04:26:47;;;;;;;9.90;5.80;;;;;;;15.03;76.53;102201.94;5050615;28;20403;-83
2021/08/28 04:29:14;;;;;;;10.48;5.32;;;;;;;15.06;76.27;102195.69;5057935;28;20064;-85
2021/08/28 04:31:40;;;;;;;10.93;6.20;;;;;;;15.06;76.33;102187.31;5059696;28;20812;-84
2021/08/28 04:34:07;;;;;;;10.15;4.70;;;;;;;15.05;76.37;102194.88;5050815;28;20056;-84
2021/08/28 04:36:34;;;;;;;11.40;5.65;;;;;;;15.07;76.41;102194.53;5051519;28;20037;-85
2021/08/28 04:39:01;;;;;;;12.20;4.80;;;;;;;15.08;76.57;102190.59;5036677;28;20563;-85
2021/08/28 04:41:28;;;;;;;9.10;5.13;;;;;;;15.09;76.70;102195.81;5054772;28;20028;-85
2021/08/28 04:43:54;;;;;;;7.43;4.47;;;;;;;15.12;76.41;102200.72;5063532;28;20048;-84
2021/08/28 04:46:21;;;;;;;9.23;4.55;;;;;;;15.12;76.65;102203.50;5067405;28;20033;-84
2021/08/28 04:48:48;;;;;;;13.23;5.07;;;;;;;15.13;76.59;102198.75;5051026;28;20033;-84
2021/08/28 04:51:15;;;;;;;12.43;5.72;;;;;;;15.12;77.00;102191.53;5050805;28;20048;-84
2021/08/28 04:53:41;;;;;;;8.10;5.32;;;;;;;15.15;76.74;102196.41;5050023;28;20388;-85
2021/08/28 04:56:08;;;;;;;11.18;5.22;;;;;;;15.16;76.89;102203.66;5047250;28;20171;-85
2021/08/28 04:58:35;;;;;;;12.68;5.63;;;;;;;15.18;76.98;102206.91;5086988;28;20502;-85
2021/08/28 05:01:03;;;;;;;12.85;5.22;;;;;;;15.14;76.73;102190.03;5069669;28;20063;-84
2021/08/28 05:03:30;;;;;;;10.30;4.90;;;;;;;15.12;76.96;102211.06;5066992;28;20119;-85
2021/08/28 05:05:57;;;;;;;9.50;5.07;;;;;;;15.11;77.08;102207.47;5071871;28;20131;-84
2021/08/28 05:08:23;;;;;;;10.25;5.40;;;;;;;15.10;76.86;102205.81;5069881;28;20115;-84
2021/08/28 05:10:50;;;;;;;10.65;4.95;;;;;;;15.06;76.96;102202.06;5058519;28;20040;-84
2021/08/28 05:13:17;;;;;;;11.35;5.88;;;;;;;15.01;77.16;102202.28;5062160;28;20446;-84
2021/08/28 05:15:44;;;;;;;8.55;4.28;;;;;;;14.94;77.18;102202.00;5066435;28;20841;-85
2021/08/28 05:18:10;;;;;;;8.77;4.85;;;;;;;14.86;76.98;102197.31;5053547;28;20083;-84
2021/08/28 05:20:37;;;;;;;9.05;4.45;;;;;;;14.77;77.37;102207.72;5051224;28;20033;-84
2021/08/28 05:23:04;;;;;;;7.88;4.78;;;;;;;14.74;77.41;102207.56;5051202;28;20041;-85
2021/08/28 05:25:31;;;;;;;12.73;6.05;;;;;;;14.69;77.53;102211.38;5063126;28;20430;-84
2021/08/28 05:27:58;;;;;;;10.82;4.85;;;;;;;14.63;77.51;102207.16;5043474;28;20071;-84
2021/08/28 05:30:25;;;;;;;10.90;5.13;;;;;;;14.61;77.62;102215.03;5049398;28;20091;-85
2021/08/28 05:32:51;;;;;;;13.00;5.70;;;;;;;14.57;77.49;102219.63;5048999;28;20041;-84
2021/08/28 05:35:18;;;;;;;9.82;4.68;;;;;;;14.54;77.52;102225.88;5050721;28;20037;-84
2021/08/28 05:37:45;;;;;;;12.45;5.25;;;;;;;14.49;78.00;102228.84;5050740;28;20507;-84
2021/08/28 05:40:13;;;;;;;9.93;4.75;;;;;;;14.46;77.99;102229.53;5050163;28;20478;-84
2021/08/28 05:42:40;;;;;;;13.00;5.05;;;;;;;14.44;78.18;102231.84;5049698;28;20049;-84
2021/08/28 05:45:08;;;;;;;11.40;5.72;;;;;;;14.41;78.01;102230.53;5046929;28;20061;-84
2021/08/28 05:47:34;;;;;;;9.90;4.45;;;;;;;14.40;78.14;102236.47;5063892;28;20037;-84
2021/08/28 05:50:02;;;;;;;12.82;5.75;;;;;;;14.44;77.86;102231.84;5049570;28;20149;-84
2021/08/28 05:52:29;;;;;;;9.30;5.35;;;;;;;14.47;78.03;102232.00;5050879;28;20071;-84
2021/08/28 05:54:56;;;;;;;9.43;5.13;;;;;;;14.50;78.03;102231.31;5057871;28;20063;-84
2021/08/28 05:57:23;;;;;;;10.93;5.30;;;;;;;14.52;77.96;102240.16;5050428;28;20430;-84
2021/08/28 05:59:49;;;;;;;11.10;5.38;;;;;;;14.55;77.89;102231.13;5052990;28;20048;-84
2021/08/28 06:02:16;;;;;;;11.38;5.75;;;;;;;14.60;77.86;102241.25;5052708;28;20055;-85
2021/08/28 06:04:43;;;;;;;12.18;6.30;;;;;;;14.66;78.13;102233.53;5034678;28;20049;-84
2021/08/28 06:07:10;;;;;;;10.20;5.95;;;;;;;14.69;77.92;102236.47;5052568;28;20132;-84
2021/08/28 06:09:37;;;;;;;13.32;6.53;;;;;;;14.77;78.08;102238.38;5069584;28;20069;-83
2021/08/28 06:12:04;;;;;;;14.32;6.60;;;;;;;14.85;78.05;102236.69;5054462;28;20045;-84
2021/08/28 06:14:31;;;;;;;12.55;6.50;;;;;;;14.90;78.00;102240.09;5066356;28;20055;-84
2021/08/28 06:16:57;;;;;;;14.75;6.97;;;;;;;14.94;78.04;102234.66;5074059;28;20666;-84
2021/08/28 06:19:24;;;;;;;14.70;7.13;;;;;;;14.98;77.83;102242.03;5055613;28;20052;-85
2021/08/28 06:21:51;;;;;;;13.20;6.47;;;;;;;15.01;77.70;102241.31;5037208;28;20498;-84
2021/08/28 06:24:17;;;;;;;14.13;6.28;;;;;;;15.02;78.01;102244.94;5054159;28;20506;-83
2021/08/28 06:26:44;;;;;;;10.00;6.13;;;;;;;15.02;78.05;102248.53;5063619;28;20048;-84
2021/08/28 06:29:11;;;;;;;12.57;6.95;;;;;;;15.06;77.84;102255.06;5049618;28;20041;-83
2021/08/28 06:31:38;;;;;;;10.00;6.15;;;;;;;15.07;77.93;102250.31;5041260;28;20107;-84
2021/08/28 06:34:04;;;;;;;12.90;6.40;;;;;;;15.10;77.95;102255.22;5047964;28;20067;-84
2021/08/28 06:36:31;;;;;;;9.35;6.57;;;;;;;15.13;77.92;102258.16;5043578;28;20052;-85
2021/08/28 06:38:58;;;;;;;12.95;6.28;;;;;;;15.16;77.99;102257.47;5053052;28;20056;-84
2021/08/28 06:41:25;;;;;;;11.13;6.03;;;;;;;15.18;77.67;102260.72;5056460;28;20056;-84
2021/08/28 06:43:51;;;;;;;13.70;7.07;;;;;;;15.22;77.78;102258.09;5063288;28;20395;-85
2021/08/28 06:46:18;;;;;;;13.52;6.50;;;;;;;15.24;77.75;102256.59;5052117;28;20051;-84
2021/08/28 06:48:45;;;;;;;15.88;6.22;;;;;;;15.27;77.73;102255.88;5051447;28;20709;-84
2021/08/28 06:51:12;;;;;;;12.32;5.97;;;;;;;15.31;77.79;102261.63;5053952;28;20041;-84
2021/08/28 06:53:38;;;;;;;11.65;6.93;;;;;;;15.33;77.97;102259.28;5045849;28;20095;-84
2021/08/28 06:56:05;;;;;;;10.95;6.88;;;;;;;15.36;77.81;102261.41;5042675;28;20052;-84
2021/08/28 06:58:32;;;;;;;11.27;6.38;;;;;;;15.40;77.73;102261.56;5055882;28;20128;-84
2021/08/28 07:00:59;;;;;;;10.43;5.50;;;;;;;15.46;77.40;102260.22;5052838;28;20072;-85
2021/08/28 07:03:27;;;;;;;17.02;7.80;;;;;;;15.50;77.68;102263.94;5053348;28;20037;-84
2021/08/28 07:05:55;;;;;;;14.30;7.93;;;;;;;15.55;77.68;102258.16;5050374;28;20095;-84
2021/08/28 07:08:21;;;;;;;11.77;6.57;;;;;;;15.58;77.57;102254.69;5034088;28;20033;-84
2021/08/28 07:10:49;;;;;;;13.70;7.38;;;;;;;15.64;77.48;102262.53;5044863;28;20029;-83
2021/08/28 07:13:15;;;;;;;14.35;6.53;;;;;;;15.70;77.31;102258.34;5048793;28;20037;-83
2021/08/28 07:15:42;;;;;;;12.60;6.28;;;;;;;15.74;77.44;102264.06;5045883;28;20036;-82
2021/08/28 07:18:10;;;;;;;12.80;7.22;;;;;;;15.76;77.24;102262.56;5036823;28;20049;-83
2021/08/28 07:20:41;;;;;;;13.20;8.10;;;;;;;15.77;77.24;102263.38;5052660;28;20109;-83
2021/08/28 07:23:08;;;;;;;16.02;6.78;;;;;;;15.78;77.48;102260.22;5046517;28;20040;-83
2021/08/28 07:25:37;;;;;;;10.65;6.30;;;;;;;15.83;77.33;102262.00;5052553;28;20043;-83
2021/08/28 07:28:10;;;;;;;10.13;6.28;;;;;;;15.86;77.32;102255.72;5047806;28;20052;-84
2021/08/28 07:30:38;;;;;;;13.23;7.47;;;;;;;15.92;77.54;102259.09;5051495;28;20025;-83
2021/08/28 07:33:05;;;;;;;11.68;6.45;;;;;;;15.96;77.37;102258.09;5069286;28;20059;-83
2021/08/28 07:35:32;;;;;;;14.93;6.70;;;;;;;15.98;77.21;102264.16;5054994;28;20084;-84
2021/08/28 07:37:59;;;;;;;8.63;5.68;;;;;;;16.01;77.24;102263.47;5041307;28;20078;-83
2021/08/28 07:40:26;;;;;;;11.80;6.15;;;;;;;16.00;77.14;102267.41;5045685;28;20079;-84
2021/08/28 07:42:54;;;;;;;11.85;5.90;;;;;;;16.04;76.93;102264.75;5045022;28;20095;-84
2021/08/28 07:45:23;;;;;;;9.88;5.63;;;;;;;16.10;76.99;102266.97;5057821;28;20052;-84
2021/08/28 07:47:50;;;;;;;11.13;6.00;;;;;;;16.14;76.96;102267.91;5055909;28;20044;-83
2021/08/28 07:50:17;;;;;;;11.93;6.93;;;;;;;16.21;77.13;102262.56;5046073;28;20050;-84
2021/08/28 07:52:45;;;;;;;9.85;5.70;;;;;;;16.25;76.96;102271.91;5050074;28;20051;-83
2021/08/28 07:55:13;;;;;;;10.93;5.95;;;;;;;16.25;76.59;102274.69;5045673;28;20050;-84
2021/08/28 07:57:40;;;;;;;8.88;5.80;;;;;;;16.29;76.81;102274.78;5056356;28;20045;-83
2021/08/28 08:00:10;;;;;;;11.40;7.28;;;;;;;16.32;76.51;102272.13;5042956;28;20040;-83
2021/08/28 08:02:37;;;;;;;10.77;6.15;;;;;;;16.39;76.38;102277.13;5045118;28;20032;-84
2021/08/28 08:05:04;;;;;;;11.80;5.38;;;;;;;16.40;76.46;102274.00;5053402;28;20044;-84
2021/08/28 08:07:31;;;;;;;8.85;5.55;;;;;;;16.43;76.43;102278.91;5045940;28;20045;-84
2021/08/28 08:09:58;;;;;;;9.18;5.57;;;;;;;16.49;76.38;102282.28;5049857;28;20067;-84
2021/08/28 08:12:24;;;;;;;11.18;5.65;;;;;;;16.60;76.67;102279.88;5052295;28;20029;-84
2021/08/28 08:14:51;;;;;;;11.70;6.57;;;;;;;16.69;76.67;102280.56;5050220;28;20049;-84
2021/08/28 08:17:18;;;;;;;11.07;5.97;;;;;;;16.80;76.93;102274.16;5042294;28;20068;-83
2021/08/28 08:19:45;;;;;;;14.57;6.20;;;;;;;16.94;77.41;102279.41;5038979;28;20030;-83
2021/08/28 08:22:11;;;;;;;12.80;5.72;;;;;;;17.07;77.33;102278.22;5058195;28;20080;-83
2021/08/28 08:24:38;;;;;;;9.82;5.10;;;;;;;17.15;77.61;102284.84;5071401;28;20036;-83
2021/08/28 08:27:05;;;;;;;10.88;5.10;;;;;;;17.27;78.04;102279.22;5052155;28;20033;-83
2021/08/28 08:29:32;;;;;;;8.45;5.40;;;;;;;17.41;78.35;102285.25;5041730;28;20033;-84
2021/08/28 08:31:58;;;;;;;6.68;4.45;;;;;;;17.54;78.58;102273.69;5064233;28;20049;-83
2021/08/28 08:34:25;;;;;;;12.18;5.10;;;;;;;17.73;78.75;102283.44;5050398;28;20037;-84
2021/08/28 08:36:52;;;;;;;12.82;4.90;;;;;;;17.96;78.75;102285.31;5047403;28;20114;-84
2021/08/28 08:39:19;;;;;;;7.32;4.97;;;;;;;18.23;78.33;102280.81;5053704;28;20079;-85
2021/08/28 08:41:49;;;;;;;12.77;5.03;;;;;;;18.60;77.38;102285.03;5052028;28;20756;-81
2021/08/28 08:44:16;;;;;;;12.15;4.95;;;;;;;19.06;76.40;102288.16;5058507;28;20040;-81
2021/08/28 08:46:48;;;;;;;6.13;4.38;;;;;;;19.53;74.53;102294.47;5063745;28;20546;-82
2021/08/28 08:49:15;;;;;;;8.07;4.95;;;;;;;20.15;72.32;102298.91;5070949;28;20046;-82
2021/08/28 08:51:44;;;;;;;8.93;4.90;;;;;;;20.73;69.87;102290.34;5066164;28;20037;-80
2021/08/28 08:54:11;;;;;;;9.65;4.80;;;;;;;21.25;67.63;102290.38;5069706;28;20093;-81
2021/08/28 08:56:38;;;;;;;7.90;4.25;;;;;;;21.55;65.83;102287.56;5059961;28;20041;-82
2021/08/28 08:59:04;;;;;;;8.48;5.22;;;;;;;21.86;64.34;102284.34;5059138;28;20040;-81
2021/08/28 09:01:31;;;;;;;6.63;4.38;;;;;;;22.27;62.93;102288.81;5035124;28;20044;-82
2021/08/28 09:03:58;;;;;;;7.22;4.45;;;;;;;22.40;61.63;102281.69;5050606;28;20033;-82
2021/08/28 09:06:25;;;;;;;11.43;5.10;;;;;;;22.79;60.67;102289.72;5066248;28;20488;-82
2021/08/28 09:08:52;;;;;;;7.40;4.78;;;;;;;23.05;60.05;102292.34;5057344;28;20064;-81
2021/08/28 09:11:30;;;;;;;8.60;4.50;;;;;;;23.25;58.39;102279.53;5078623;28;20452;-82
2021/08/28 09:14:20;;;;;;;9.55;4.85;;;;;;;23.60;57.57;102293.09;5065946;28;20047;-82
2021/08/28 09:16:49;;;;;;;6.20;4.70;;;;;;;23.79;57.66;102291.94;5051271;28;20296;-83
2021/08/28 09:19:39;;;;;;;6.60;4.40;;;;;;;23.91;56.81;102294.41;5050787;28;20033;-84
2021/08/28 09:22:07;;;;;;;7.10;4.15;;;;;;;23.97;56.11;102289.97;5050499;28;20041;-81
2021/08/28 09:24:45;;;;;;;7.53;4.43;;;;;;;24.31;54.71;102290.50;5049496;28;20041;-80
2021/08/28 09:27:30;;;;;;;11.23;4.80;;;;;;;24.55;54.60;102290.53;5060469;28;20055;-82
2021/08/28 09:29:57;;;;;;;6.78;4.32;;;;;;;24.64;54.08;102295.78;5061158;28;20041;-81
2021/08/28 09:32:23;;;;;;;7.63;4.72;;;;;;;24.65;53.73;102294.56;5050483;28;20051;-80
2021/08/28 09:34:50;;;;;;;8.88;4.57;;;;;;;24.89;53.12;102285.28;5050154;28;20389;-81
2021/08/28 09:37:17;;;;;;;7.95;3.80;;;;;;;25.08;52.32;102284.84;5057708;28;20056;-81
2021/08/28 09:39:50;;;;;;;7.85;4.70;;;;;;;25.16;52.07;102285.63;5054676;28;20036;-81
2021/08/28 09:42:21;;;;;;;9.02;4.47;;;;;;;25.25;51.29;102284.03;5058950;28;20127;-81
2021/08/28 09:44:50;;;;;;;12.73;5.03;;;;;;;25.40;50.84;102284.78;5055923;28;20542;-81
2021/08/28 09:47:29;;;;;;;6.18;4.13;;;;;;;25.46;50.05;102283.16;5062668;28;20041;-86
2021/08/28 09:49:56;;;;;;;4.97;4.28;;;;;;;25.54;49.91;102284.75;5053035;28;20052;-81
2021/08/28 09:52:26;;;;;;;6.45;4.13;;;;;;;25.64;49.68;102278.22;5054213;28;20033;-80
2021/08/28 09:54:56;;;;;;;7.95;4.93;;;;;;;25.76;49.49;102286.28;5059186;28;20037;-81
2021/08/28 09:57:30;;;;;;;8.20;4.70;;;;;;;25.93;48.55;102285.38;5054822;28;20116;-82
2021/08/28 10:00:00;;;;;;;7.38;3.85;;;;;;;25.84;47.90;102282.19;5056612;28;20277;-84
2021/08/28 10:02:27;;;;;;;7.13;4.10;;;;;;;25.83;48.34;102277.75;5047810;28;20048;-85
2021/08/28 10:04:59;;;;;;;7.20;4.50;;;;;;;25.56;47.74;102270.97;5053582;28;20124;-83
2021/08/28 10:07:28;;;;;;;5.80;4.05;;;;;;;25.35;48.05;102271.84;5052736;28;20069;-82
2021/08/28 10:09:55;;;;;;;6.90;3.78;;;;;;;25.46;48.02;102282.31;5053804;28;20045;-81
2021/08/28 10:12:31;;;;;;;9.18;3.42;;;;;;;25.73;47.76;102280.63;5053354;28;20037;-83
2021/08/28 10:14:59;;;;;;;10.57;4.70;;;;;;;25.82;47.77;102278.13;5067669;28;20128;-82
2021/08/28 10:17:27;;;;;;;6.90;3.88;;;;;;;25.79;48.10;102279.78;5049302;28;20154;-81
2021/08/28 10:19:55;;;;;;;9.48;4.40;;;;;;;25.77;47.55;102276.53;5048703;28;20124;-81
2021/08/28 10:22:28;;;;;;;15.02;5.03;;;;;;;25.88;47.13;102280.16;5043946;28;20135;-81
2021/08/28 10:24:57;;;;;;;6.78;3.72;;;;;;;25.84;48.13;102273.66;5039474;28;20080;-81
2021/08/28 10:27:26;;;;;;;6.93;3.90;;;;;;;25.84;47.75;102275.72;5044052;28;20068;-81
2021/08/28 10:29:54;;;;;;;5.95;3.53;;;;;;;25.93;46.99;102274.03;5039024;28;20108;-84
2021/08/28 10:32:21;;;;;;;6.72;3.28;;;;;;;25.92;47.06;102278.09;5050432;28;20660;-85
2021/08/28 10:34:51;;;;;;;6.53;4.47;;;;;;;25.83;47.18;102277.75;5044739;28;20076;-81
2021/08/28 10:37:19;;;;;;;6.00;3.85;;;;;;;25.77;47.09;102275.72;5046065;28;20480;-82
2021/08/28 10:39:48;;;;;;;5.10;3.58;;;;;;;25.72;46.77;102274.13;5033223;28;20054;-81
2021/08/28 10:42:15;;;;;;;7.35;3.45;;;;;;;25.64;47.37;102272.56;5051664;28;20040;-82
2021/08/28 10:44:41;;;;;;;8.32;3.78;;;;;;;25.71;47.02;102272.50;5046848;28;20041;-81
2021/08/28 10:47:13;;;;;;;7.75;3.40;;;;;;;25.52;47.53;102283.56;5051046;28;20029;-81
2021/08/28 10:49:45;;;;;;;5.20;3.58;;;;;;;25.40;47.41;102276.25;5049536;28;20044;-84
2021/08/28 10:52:24;;;;;;;5.47;3.15;;;;;;;25.14;47.77;102273.91;5049057;28;20100;-82
2021/08/28 10:55:31;;;;;;;6.00;3.72;;;;;;;24.97;47.88;102271.91;5049330;28;20033;-80
2021/08/28 10:58:18;;;;;;;8.23;3.75;;;;;;;24.60;48.85;102275.13;5052487;28;20045;-80
2021/08/28 11:00:49;;;;;;;5.88;3.58;;;;;;;24.37;49.06;102274.72;5050218;28;20055;-81
2021/08/28 11:03:31;;;;;;;5.30;3.25;;;;;;;24.25;49.32;102269.47;5045669;28;20126;-82
2021/08/28 11:06:13;;;;;;;8.02;3.75;;;;;;;24.07;49.10;102269.38;5053763;28;20076;-82
2021/08/28 11:08:57;;;;;;;5.30;3.50;;;;;;;23.81;49.34;102281.03;5053150;28;20040;-82
2021/08/28 11:11:37;;;;;;;4.13;3.38;;;;;;;23.74;49.51;102284.66;5066081;28;20041;-81
2021/08/28 11:14:09;;;;;;;7.13;2.92;;;;;;;23.60;49.30;102285.41;5046213;28;20037;-82
2021/08/28 11:16:45;;;;;;;6.07;3.00;;;;;;;23.40;50.28;102275.63;5051623;28;20123;-82
2021/08/28 11:19:12;;;;;;;5.65;3.78;;;;;;;23.27;50.95;102277.13;5052773;28;20483;-82
2021/08/28 11:21:47;;;;;;;6.10;3.40;;;;;;;23.20;51.09;102288.41;5052387;28;20041;-82
2021/08/28 11:24:17;;;;;;;6.82;3.85;;;;;;;23.08;51.51;102288.75;5056082;28;20043;-85
2021/08/28 11:26:52;;;;;;;4.82;3.78;;;;;;;22.91;51.86;102286.59;5052920;28;20387;-84